Torbat-Heydarieh, Iran
Current Conditions -  °F | °C
As of 8:26 PM on Thursday 30 Oct 2014 (Local Time) from OIMM Reporting Station
Clear Clear  
Wind Chill:   Ceiling: Unl
Heat Index:   Visibility: 6mi
Dew Point: -11°   Wind: 7mph
Humidity: 29%   Direction: 180°S
Pressure: 30.3"   Gusts: NA
Location:  35.27°N, 59.22°E
Report Text: OIMM 301726Z 18006KT CAVOK 06/M11 Q1026 A3030
Loading
Personal Weather Stations






























Interactive Weather Map
Tropical Storm Tracking
New forecast layout! Learn more

10-Day Weather Forecast

Advertisements
Track Severe Weather on mobile